sensor_id;sensor_type;location;lat;lon;timestamp;pressure;altitude;pressure_sealevel;temperature;humidity
75936;BME280;64614;32.062;34.834;2023-07-13T00:01:45;100618.66;;;28.99;58.88
75936;BME280;64614;32.062;34.834;2023-07-13T00:04:20;100613.56;;;29.01;58.92
75936;BME280;64614;32.062;34.834;2023-07-13T00:06:46;100608.38;;;28.99;59.10
75936;BME280;64614;32.062;34.834;2023-07-13T00:09:13;100610.00;;;29.00;59.17
75936;BME280;64614;32.062;34.834;2023-07-13T00:11:40;100615.53;;;29.00;59.32
75936;BME280;64614;32.062;34.834;2023-07-13T00:14:07;100622.22;;;28.99;58.85
75936;BME280;64614;32.062;34.834;2023-07-13T00:16:37;100609.22;;;29.00;58.71
75936;BME280;64614;32.062;34.834;2023-07-13T00:19:04;100610.78;;;29.01;59.07
75936;BME280;64614;32.062;34.834;2023-07-13T00:21:30;100613.47;;;28.97;59.03
75936;BME280;64614;32.062;34.834;2023-07-13T00:23:55;100613.91;;;28.99;58.97
75936;BME280;64614;32.062;34.834;2023-07-13T00:26:21;100610.00;;;29.00;59.01
75936;BME280;64614;32.062;34.834;2023-07-13T00:28:47;100595.72;;;28.98;59.05
75936;BME280;64614;32.062;34.834;2023-07-13T00:31:13;100596.19;;;29.00;58.78
75936;BME280;64614;32.062;34.834;2023-07-13T00:33:41;100603.69;;;29.00;58.68
75936;BME280;64614;32.062;34.834;2023-07-13T00:36:08;100598.16;;;29.00;58.78
75936;BME280;64614;32.062;34.834;2023-07-13T00:38:34;100603.69;;;29.00;59.31
75936;BME280;64614;32.062;34.834;2023-07-13T00:41:00;100600.91;;;29.00;59.06
75936;BME280;64614;32.062;34.834;2023-07-13T00:43:28;100602.88;;;28.99;58.60
75936;BME280;64614;32.062;34.834;2023-07-13T00:48:21;100600.09;;;28.99;58.94
75936;BME280;64614;32.062;34.834;2023-07-13T00:50:55;100601.72;;;29.00;59.08
75936;BME280;64614;32.062;34.834;2023-07-13T00:53:25;100601.72;;;29.00;58.67
75936;BME280;64614;32.062;34.834;2023-07-13T00:55:53;100602.06;;;28.99;59.04
75936;BME280;64614;32.062;34.834;2023-07-13T00:58:19;100591.00;;;28.99;58.61
75936;BME280;64614;32.062;34.834;2023-07-13T01:00:46;100589.41;;;28.98;58.88
75936;BME280;64614;32.062;34.834;2023-07-13T01:03:14;100598.22;;;29.03;59.12
75936;BME280;64614;32.062;34.834;2023-07-13T01:05:41;100599.72;;;29.01;59.04
75936;BME280;64614;32.062;34.834;2023-07-13T01:08:07;100594.94;;;28.98;59.04
75936;BME280;64614;32.062;34.834;2023-07-13T01:10:34;100599.31;;;28.99;58.99
75936;BME280;64614;32.062;34.834;2023-07-13T01:13:08;100596.88;;;28.97;59.16
75936;BME280;64614;32.062;34.834;2023-07-13T01:15:42;100592.97;;;28.98;58.95
75936;BME280;64614;32.062;34.834;2023-07-13T01:18:11;100594.13;;;28.97;59.20
75936;BME280;64614;32.062;34.834;2023-07-13T01:20:38;100605.19;;;28.97;58.78
75936;BME280;64614;32.062;34.834;2023-07-13T01:23:09;100599.66;;;28.97;58.89
75936;BME280;64614;32.062;34.834;2023-07-13T01:25:36;100600.47;;;28.98;58.88
75936;BME280;64614;32.062;34.834;2023-07-13T01:28:06;100596.88;;;28.97;58.21
75936;BME280;64614;32.062;34.834;2023-07-13T01:30:35;100588.16;;;28.95;58.67
75936;BME280;64614;32.062;34.834;2023-07-13T01:33:00;100602.78;;;28.96;59.01
75936;BME280;64614;32.062;34.834;2023-07-13T01:35:27;100605.53;;;28.96;58.94
75936;BME280;64614;32.062;34.834;2023-07-13T01:37:53;100606.34;;;28.96;58.88
75936;BME280;64614;32.062;34.834;2023-07-13T01:40:19;100604.75;;;28.95;58.95
75936;BME280;64614;32.062;34.834;2023-07-13T01:42:45;100586.56;;;28.94;58.87
75936;BME280;64614;32.062;34.834;2023-07-13T01:45:12;100589.31;;;28.94;58.88
75936;BME280;64614;32.062;34.834;2023-07-13T01:47:38;100589.31;;;28.94;58.70
75936;BME280;64614;32.062;34.834;2023-07-13T01:50:03;100594.03;;;28.93;59.07
75936;BME280;64614;32.062;34.834;2023-07-13T01:52:29;100590.47;;;28.93;59.01
75936;BME280;64614;32.062;34.834;2023-07-13T01:54:55;100594.41;;;28.92;58.61
75936;BME280;64614;32.062;34.834;2023-07-13T01:57:20;100589.25;;;28.90;58.87
75936;BME280;64614;32.062;34.834;2023-07-13T01:59:46;100581.28;;;28.89;58.62
75936;BME280;64614;32.062;34.834;2023-07-13T02:02:22;100597.16;;;28.92;58.94
75936;BME280;64614;32.062;34.834;2023-07-13T02:04:51;100582.44;;;28.88;58.83
75936;BME280;64614;32.062;34.834;2023-07-13T02:07:20;100578.44;;;28.85;58.70
75936;BME280;64614;32.062;34.834;2023-07-13T02:09:45;100584.41;;;28.87;58.84
75936;BME280;64614;32.062;34.834;2023-07-13T02:12:11;100582.88;;;28.90;59.12
75936;BME280;64614;32.062;34.834;2023-07-13T02:14:37;100589.25;;;28.90;58.75
75936;BME280;64614;32.062;34.834;2023-07-13T02:17:04;100602.25;;;28.90;59.00
75936;BME280;64614;32.062;34.834;2023-07-13T02:19:31;100600.28;;;28.90;58.90
75936;BME280;64614;32.062;34.834;2023-07-13T02:21:57;100597.53;;;28.90;58.68
75936;BME280;64614;32.062;34.834;2023-07-13T02:24:22;100608.22;;;28.92;58.94
75936;BME280;64614;32.062;34.834;2023-07-13T02:26:48;100606.97;;;28.89;59.00
75936;BME280;64614;32.062;34.834;2023-07-13T02:29:14;100607.84;;;28.93;58.88
75936;BME280;64614;32.062;34.834;2023-07-13T02:31:43;100610.53;;;28.90;58.89
75936;BME280;64614;32.062;34.834;2023-07-13T02:34:11;100617.66;;;28.91;58.87
75936;BME280;64614;32.062;34.834;2023-07-13T02:36:37;100625.97;;;28.91;58.93
75936;BME280;64614;32.062;34.834;2023-07-13T02:39:04;100621.22;;;28.91;59.34
75936;BME280;64614;32.062;34.834;2023-07-13T02:41:30;100612.13;;;28.91;58.97
75936;BME280;64614;32.062;34.834;2023-07-13T02:43:57;100624.81;;;28.92;59.12
75936;BME280;64614;32.062;34.834;2023-07-13T02:46:33;100631.13;;;28.92;58.78
75936;BME280;64614;32.062;34.834;2023-07-13T02:48:59;100635.03;;;28.91;58.85
75936;BME280;64614;32.062;34.834;2023-07-13T02:51:25;100630.34;;;28.92;58.72
75936;BME280;64614;32.062;34.834;2023-07-13T02:53:51;100631.50;;;28.91;58.72
75936;BME280;64614;32.062;34.834;2023-07-13T02:56:17;100640.25;;;28.93;58.85
75936;BME280;64614;32.062;34.834;2023-07-13T02:58:43;100637.03;;;28.91;59.04
75936;BME280;64614;32.062;34.834;2023-07-13T03:01:10;100640.56;;;28.91;59.08
75936;BME280;64614;32.062;34.834;2023-07-13T03:03:37;100636.66;;;28.92;58.73
75936;BME280;64614;32.062;34.834;2023-07-13T03:06:04;100638.63;;;28.92;58.98
75936;BME280;64614;32.062;34.834;2023-07-13T03:08:31;100635.88;;;28.92;58.94
75936;BME280;64614;32.062;34.834;2023-07-13T03:11:02;100638.63;;;28.92;59.16
75936;BME280;64614;32.062;34.834;2023-07-13T03:13:28;100640.56;;;28.91;58.83
75936;BME280;64614;32.062;34.834;2023-07-13T03:15:54;100640.94;;;28.90;59.17
75936;BME280;64614;32.062;34.834;2023-07-13T03:18:20;100625.97;;;28.91;58.98
75936;BME280;64614;32.062;34.834;2023-07-13T03:20:45;100630.69;;;28.90;58.92
75936;BME280;64614;32.062;34.834;2023-07-13T03:23:11;100630.69;;;28.90;58.89
75936;BME280;64614;32.062;34.834;2023-07-13T03:25:41;100628.63;;;28.87;58.71
75936;BME280;64614;32.062;34.834;2023-07-13T03:33:20;100624.34;;;28.90;58.89
75936;BME280;64614;32.062;34.834;2023-07-13T03:35:46;100630.69;;;28.90;59.21
75936;BME280;64614;32.062;34.834;2023-07-13T04:01:28;100623.19;;;28.91;58.92
75936;BME280;64614;32.062;34.834;2023-07-13T04:03:54;100617.66;;;28.91;58.92
75936;BME280;64614;32.062;34.834;2023-07-13T04:06:23;100635.88;;;28.92;58.93
75936;BME280;64614;32.062;34.834;2023-07-13T04:08:52;100621.59;;;28.90;58.92
75936;BME280;64614;32.062;34.834;2023-07-13T04:11:20;100630.34;;;28.92;59.04
75936;BME280;64614;32.062;34.834;2023-07-13T04:13:46;100635.88;;;28.92;58.90
75936;BME280;64614;32.062;34.834;2023-07-13T04:16:13;100632.66;;;28.90;58.69
75936;BME280;64614;32.062;34.834;2023-07-13T04:18:40;100635.88;;;28.92;58.71
75936;BME280;64614;32.062;34.834;2023-07-13T04:21:07;100634.25;;;28.91;59.11
75936;BME280;64614;32.062;34.834;2023-07-13T04:23:34;100631.94;;;28.93;59.09
75936;BME280;64614;32.062;34.834;2023-07-13T04:26:00;100639.00;;;28.90;58.88
75936;BME280;64614;32.062;34.834;2023-07-13T04:28:26;100645.31;;;28.91;59.00
75936;BME280;64614;32.062;34.834;2023-07-13T04:30:53;100644.94;;;28.92;59.07
75936;BME280;64614;32.062;34.834;2023-07-13T04:33:19;100643.34;;;28.91;58.80
75936;BME280;64614;32.062;34.834;2023-07-13T04:35:52;100652.81;;;28.90;58.98
75936;BME280;64614;32.062;34.834;2023-07-13T04:40:59;100660.75;;;28.92;58.96
75936;BME280;64614;32.062;34.834;2023-07-13T04:43:32;100653.59;;;28.91;58.98
75936;BME280;64614;32.062;34.834;2023-07-13T04:58:46;100678.94;;;28.93;58.89
75936;BME280;64614;32.062;34.834;2023-07-13T05:01:12;100681.69;;;28.93;58.87
75936;BME280;64614;32.062;34.834;2023-07-13T05:03:39;100678.94;;;28.93;58.92
75936;BME280;64614;32.062;34.834;2023-07-13T05:06:06;100676.19;;;28.93;58.86
75936;BME280;64614;32.062;34.834;2023-07-13T05:13:42;100686.06;;;28.94;58.80
75936;BME280;64614;32.062;34.834;2023-07-13T05:16:08;100671.44;;;28.93;59.20
75936;BME280;64614;32.062;34.834;2023-07-13T05:21:10;100680.19;;;28.96;59.07
75936;BME280;64614;32.062;34.834;2023-07-13T05:23:37;100677.06;;;28.97;58.91
75936;BME280;64614;32.062;34.834;2023-07-13T05:26:03;100675.81;;;28.95;59.22
75936;BME280;64614;32.062;34.834;2023-07-13T05:28:30;100676.63;;;28.95;59.02
75936;BME280;64614;32.062;34.834;2023-07-13T05:30:59;100671.88;;;28.96;58.85
75936;BME280;64614;32.062;34.834;2023-07-13T05:33:25;100669.91;;;28.96;58.99
75936;BME280;64614;32.062;34.834;2023-07-13T05:35:51;100677.06;;;28.97;58.73
75936;BME280;64614;32.062;34.834;2023-07-13T05:38:17;100681.44;;;28.98;59.03
75936;BME280;64614;32.062;34.834;2023-07-13T05:40:43;100684.19;;;28.98;59.43
75936;BME280;64614;32.062;34.834;2023-07-13T05:43:10;100680.28;;;28.99;59.03
75936;BME280;64614;32.062;34.834;2023-07-13T05:45:35;100673.13;;;28.98;58.91
75936;BME280;64614;32.062;34.834;2023-07-13T05:50:36;100669.22;;;28.99;59.00
75936;BME280;64614;32.062;34.834;2023-07-13T05:53:02;100665.28;;;29.00;59.09
75936;BME280;64614;32.062;34.834;2023-07-13T05:55:27;100658.97;;;29.00;59.17
75936;BME280;64614;32.062;34.834;2023-07-13T05:57:53;100657.78;;;29.01;58.45
75936;BME280;64614;32.062;34.834;2023-07-13T06:00:19;100655.84;;;29.01;59.27
75936;BME280;64614;32.062;34.834;2023-07-13T06:02:45;100665.75;;;29.02;58.91
75936;BME280;64614;32.062;34.834;2023-07-13T06:23:20;100652.72;;;29.03;58.93
75936;BME280;64614;32.062;34.834;2023-07-13T06:25:45;100662.25;;;29.05;58.89
75936;BME280;64614;32.062;34.834;2023-07-13T06:28:11;100673.75;;;29.07;58.95
75936;BME280;64614;32.062;34.834;2023-07-13T06:30:38;100671.00;;;29.07;59.07
75936;BME280;64614;32.062;34.834;2023-07-13T06:35:30;100656.72;;;29.05;59.00
75936;BME280;64614;32.062;34.834;2023-07-13T06:37:55;100664.31;;;29.08;59.23
75936;BME280;64614;32.062;34.834;2023-07-13T06:40:22;100672.59;;;29.08;59.13
75936;BME280;64614;32.062;34.834;2023-07-13T06:42:47;100675.38;;;29.08;59.03
75936;BME280;64614;32.062;34.834;2023-07-13T06:45:13;100671.09;;;29.11;59.15
75936;BME280;64614;32.062;34.834;2023-07-13T06:47:38;100675.81;;;29.11;59.42
75936;BME280;64614;32.062;34.834;2023-07-13T06:50:04;100669.47;;;29.10;58.99
75936;BME280;64614;32.062;34.834;2023-07-13T06:52:30;100671.91;;;29.12;59.34
75936;BME280;64614;32.062;34.834;2023-07-13T06:54:56;100672.25;;;29.10;59.01
75936;BME280;64614;32.062;34.834;2023-07-13T06:57:22;100672.69;;;29.12;58.94
75936;BME280;64614;32.062;34.834;2023-07-13T06:59:48;100674.31;;;29.13;59.08
75936;BME280;64614;32.062;34.834;2023-07-13T07:02:13;100671.53;;;29.13;59.09
75936;BME280;64614;32.062;34.834;2023-07-13T07:04:39;100679.84;;;29.13;59.05
75936;BME280;64614;32.062;34.834;2023-07-13T07:07:05;100687.75;;;29.15;59.10
75936;BME280;64614;32.062;34.834;2023-07-13T07:09:30;100690.53;;;29.15;58.86
75936;BME280;64614;32.062;34.834;2023-07-13T07:11:57;100683.06;;;29.15;59.15
75936;BME280;64614;32.062;34.834;2023-07-13T07:14:24;100685.00;;;29.15;59.26
75936;BME280;64614;32.062;34.834;2023-07-13T07:16:50;100684.66;;;29.16;58.97
75936;BME280;64614;32.062;34.834;2023-07-13T07:19:16;100683.06;;;29.15;59.27
75936;BME280;64614;32.062;34.834;2023-07-13T07:21:41;100681.06;;;29.16;59.36
75936;BME280;64614;32.062;34.834;2023-07-13T07:24:07;100679.91;;;29.17;59.05
75936;BME280;64614;32.062;34.834;2023-07-13T07:26:33;100687.44;;;29.16;59.19
75936;BME280;64614;32.062;34.834;2023-07-13T07:28:59;100684.28;;;29.18;59.13
75936;BME280;64614;32.062;34.834;2023-07-13T07:31:24;100683.13;;;29.19;59.47
75936;BME280;64614;32.062;34.834;2023-07-13T07:33:50;100672.06;;;29.19;59.01
75936;BME280;64614;32.062;34.834;2023-07-13T07:36:16;100674.38;;;29.17;59.26
75936;BME280;64614;32.062;34.834;2023-07-13T07:38:45;100680.00;;;29.20;58.94
75936;BME280;64614;32.062;34.834;2023-07-13T07:46:21;100670.19;;;29.23;58.94
75936;BME280;64614;32.062;34.834;2023-07-13T07:48:47;100670.56;;;29.21;59.32
75936;BME280;64614;32.062;34.834;2023-07-13T07:51:12;100665.09;;;29.25;60.03
75936;BME280;64614;32.062;34.834;2023-07-13T07:53:38;100668.06;;;29.32;60.26
75936;BME280;64614;32.062;34.834;2023-07-13T07:56:04;100674.50;;;29.36;60.20
75936;BME280;64614;32.062;34.834;2023-07-13T07:58:29;100669.06;;;29.40;60.21
75936;BME280;64614;32.062;34.834;2023-07-13T08:01:02;100671.44;;;29.42;60.00
75936;BME280;64614;32.062;34.834;2023-07-13T08:03:28;100674.31;;;29.45;60.15
75936;BME280;64614;32.062;34.834;2023-07-13T08:05:54;100664.84;;;29.46;60.18
75936;BME280;64614;32.062;34.834;2023-07-13T08:08:20;100662.53;;;29.48;60.19
75936;BME280;64614;32.062;34.834;2023-07-13T08:10:45;100667.69;;;29.50;60.09
75936;BME280;64614;32.062;34.834;2023-07-13T08:13:11;100655.47;;;29.51;60.37
75936;BME280;64614;32.062;34.834;2023-07-13T08:15:39;100673.69;;;29.52;60.33
75936;BME280;64614;32.062;34.834;2023-07-13T08:18:06;100665.00;;;29.53;60.28
75936;BME280;64614;32.062;34.834;2023-07-13T08:20:32;100668.13;;;29.52;60.50
75936;BME280;64614;32.062;34.834;2023-07-13T08:23:00;100676.88;;;29.54;60.08
75936;BME280;64614;32.062;34.834;2023-07-13T08:25:25;100672.97;;;29.55;60.37
75936;BME280;64614;32.062;34.834;2023-07-13T08:27:51;100663.06;;;29.54;60.39
75936;BME280;64614;32.062;34.834;2023-07-13T08:30:17;100654.75;;;29.54;60.20
75936;BME280;64614;32.062;34.834;2023-07-13T08:32:42;100653.94;;;29.53;60.41
75936;BME280;64614;32.062;34.834;2023-07-13T08:35:08;100657.16;;;29.55;60.03
75936;BME280;64614;32.062;34.834;2023-07-13T08:37:34;100664.28;;;29.57;60.09
75936;BME280;64614;32.062;34.834;2023-07-13T08:39:59;100655.19;;;29.56;60.26
75936;BME280;64614;32.062;34.834;2023-07-13T08:42:42;100657.16;;;29.55;60.11
75936;BME280;64614;32.062;34.834;2023-07-13T08:45:21;100648.50;;;29.57;60.27
75936;BME280;64614;32.062;34.834;2023-07-13T08:47:58;100652.84;;;29.58;60.21
75936;BME280;64614;32.062;34.834;2023-07-13T08:50:30;100655.63;;;29.58;60.41
75936;BME280;64614;32.062;34.834;2023-07-13T08:52:59;100657.59;;;29.58;60.26
75936;BME280;64614;32.062;34.834;2023-07-13T08:55:34;100650.91;;;29.59;60.63
75936;BME280;64614;32.062;34.834;2023-07-13T08:58:12;100650.09;;;29.58;60.40
75936;BME280;64614;32.062;34.834;2023-07-13T09:00:43;100651.34;;;29.61;60.55
75936;BME280;64614;32.062;34.834;2023-07-13T09:03:23;100640.28;;;29.61;60.37
75936;BME280;64614;32.062;34.834;2023-07-13T09:05:58;100643.84;;;29.61;60.31
75936;BME280;64614;32.062;34.834;2023-07-13T09:11:44;100645.44;;;29.62;60.49
75936;BME280;64614;32.062;34.834;2023-07-13T09:16:49;100646.59;;;29.61;60.60
75936;BME280;64614;32.062;34.834;2023-07-13T09:19:26;100633.59;;;29.62;60.36
75936;BME280;64614;32.062;34.834;2023-07-13T09:21:55;100645.44;;;29.62;60.67
75936;BME280;64614;32.062;34.834;2023-07-13T09:26:57;100630.44;;;29.63;60.51
75936;BME280;64614;32.062;34.834;2023-07-13T09:29:32;100633.22;;;29.63;60.58
75936;BME280;64614;32.062;34.834;2023-07-13T09:32:05;100618.94;;;29.61;60.54
75936;BME280;64614;32.062;34.834;2023-07-13T09:34:34;100640.38;;;29.64;60.46
75936;BME280;64614;32.062;34.834;2023-07-13T09:37:01;100634.38;;;29.62;60.51
75936;BME280;64614;32.062;34.834;2023-07-13T09:39:38;100624.53;;;29.65;60.62
75936;BME280;64614;32.062;34.834;2023-07-13T09:44:42;100628.13;;;29.65;60.50
75936;BME280;64614;32.062;34.834;2023-07-13T09:47:23;100619.00;;;29.65;60.38
75936;BME280;64614;32.062;34.834;2023-07-13T09:49:59;100632.13;;;29.68;60.35
75936;BME280;64614;32.062;34.834;2023-07-13T09:52:26;100622.59;;;29.65;60.27
75936;BME280;64614;32.062;34.834;2023-07-13T09:54:55;100617.84;;;29.66;60.39
75936;BME280;64614;32.062;34.834;2023-07-13T09:57:27;100618.63;;;29.66;60.38
75936;BME280;64614;32.062;34.834;2023-07-13T09:59:55;100603.22;;;29.65;60.42
75936;BME280;64614;32.062;34.834;2023-07-13T10:02:34;100602.03;;;29.66;60.46
75936;BME280;64614;32.062;34.834;2023-07-13T10:05:07;100611.94;;;29.67;60.39
75936;BME280;64614;32.062;34.834;2023-07-13T10:07:41;100594.19;;;29.68;60.55
75936;BME280;64614;32.062;34.834;2023-07-13T10:10:19;100606.06;;;29.69;60.40
75936;BME280;64614;32.062;34.834;2023-07-13T10:12:49;100599.28;;;29.66;60.31
75936;BME280;64614;32.062;34.834;2023-07-13T10:15:22;100590.97;;;29.66;60.49
75936;BME280;64614;32.062;34.834;2023-07-13T10:17:59;100587.03;;;29.67;60.29
75936;BME280;64614;32.062;34.834;2023-07-13T10:20:35;100584.78;;;29.73;60.38
75936;BME280;64614;32.062;34.834;2023-07-13T10:23:13;100591.13;;;29.74;60.51
75936;BME280;64614;32.062;34.834;2023-07-13T10:25:43;100581.69;;;29.75;60.41
75936;BME280;64614;32.062;34.834;2023-07-13T10:28:30;100565.06;;;29.75;60.51
75936;BME280;64614;32.062;34.834;2023-07-13T10:30:58;100570.59;;;29.75;60.38
75936;BME280;64614;32.062;34.834;2023-07-13T10:33:25;100566.66;;;29.76;60.21
75936;BME280;64614;32.062;34.834;2023-07-13T10:35:59;100566.66;;;29.76;60.15
75936;BME280;64614;32.062;34.834;2023-07-13T10:38:27;100563.88;;;29.76;60.39
75936;BME280;64614;32.062;34.834;2023-07-13T10:40:58;100559.59;;;29.78;60.45
75936;BME280;64614;32.062;34.834;2023-07-13T10:43:34;100551.31;;;29.78;60.35
75936;BME280;64614;32.062;34.834;2023-07-13T10:46:06;100558.78;;;29.78;60.10
75936;BME280;64614;32.062;34.834;2023-07-13T10:48:34;100559.94;;;29.77;60.27
75936;BME280;64614;32.062;34.834;2023-07-13T10:51:04;100546.94;;;29.77;60.50
75936;BME280;64614;32.062;34.834;2023-07-13T10:53:36;100552.47;;;29.77;60.34
75936;BME280;64614;32.062;34.834;2023-07-13T10:56:08;100553.25;;;29.78;60.54
75936;BME280;64614;32.062;34.834;2023-07-13T10:58:45;100536.19;;;29.76;60.37
75936;BME280;64614;32.062;34.834;2023-07-13T11:01:14;100538.19;;;29.75;60.39
75936;BME280;64614;32.062;34.834;2023-07-13T11:06:13;100542.19;;;29.78;60.38
75936;BME280;64614;32.062;34.834;2023-07-13T11:30:22;100512.91;;;29.77;60.32
75936;BME280;64614;32.062;34.834;2023-07-13T11:32:50;100510.56;;;29.79;60.20
75936;BME280;64614;32.062;34.834;2023-07-13T11:35:22;100510.94;;;29.77;60.25
75936;BME280;64614;32.062;34.834;2023-07-13T11:37:49;100501.03;;;29.76;60.47
75936;BME280;64614;32.062;34.834;2023-07-13T11:40:16;100506.56;;;29.76;60.22
75936;BME280;64614;32.062;34.834;2023-07-13T11:42:41;100495.50;;;29.76;60.41
75936;BME280;64614;32.062;34.834;2023-07-13T11:45:27;100490.75;;;29.77;60.50
75936;BME280;64614;32.062;34.834;2023-07-13T11:47:54;100491.56;;;29.77;60.47
75936;BME280;64614;32.062;34.834;2023-07-13T11:50:23;100495.13;;;29.78;60.37
75936;BME280;64614;32.062;34.834;2023-07-13T11:52:50;100474.97;;;29.77;60.28
75936;BME280;64614;32.062;34.834;2023-07-13T11:55:20;100485.22;;;29.77;60.34
75936;BME280;64614;32.062;34.834;2023-07-13T11:57:58;100483.59;;;29.76;60.12
75936;BME280;64614;32.062;34.834;2023-07-13T12:00:32;100469.78;;;29.76;60.40
75936;BME280;64614;32.062;34.834;2023-07-13T12:02:59;100468.59;;;29.77;60.35
75936;BME280;64614;32.062;34.834;2023-07-13T12:05:26;100466.66;;;29.77;60.32
75936;BME280;64614;32.062;34.834;2023-07-13T12:07:52;100467.81;;;29.76;60.39
75936;BME280;64614;32.062;34.834;2023-07-13T12:10:30;100459.13;;;29.78;60.11
75936;BME280;64614;32.062;34.834;2023-07-13T12:13:03;100453.59;;;29.78;60.14
75936;BME280;64614;32.062;34.834;2023-07-13T12:15:41;100458.28;;;29.74;60.36
75936;BME280;64614;32.062;34.834;2023-07-13T12:18:13;100449.59;;;29.75;60.72
75936;BME280;64614;32.062;34.834;2023-07-13T12:20:39;100453.97;;;29.76;60.11
75936;BME280;64614;32.062;34.834;2023-07-13T12:23:06;100453.59;;;29.78;60.23
75936;BME280;64614;32.062;34.834;2023-07-13T12:25:42;100439.41;;;29.79;60.32
75936;BME280;64614;32.062;34.834;2023-07-13T12:28:23;100455.66;;;29.81;60.41
75936;BME280;64614;32.062;34.834;2023-07-13T12:30:57;100438.66;;;29.82;60.32
75936;BME280;64614;32.062;34.834;2023-07-13T12:33:26;100448.13;;;29.81;59.88
75936;BME280;64614;32.062;34.834;2023-07-13T12:35:53;100435.09;;;29.82;60.26
75936;BME280;64614;32.062;34.834;2023-07-13T12:38:19;100435.53;;;29.84;60.46
75936;BME280;64614;32.062;34.834;2023-07-13T12:40:50;100436.72;;;29.83;60.40
75936;BME280;64614;32.062;34.834;2023-07-13T12:43:17;100442.59;;;29.81;59.90
75936;BME280;64614;32.062;34.834;2023-07-13T12:46:18;100445.03;;;29.83;60.26
75936;BME280;64614;32.062;34.834;2023-07-13T12:48:48;100425.19;;;29.81;59.96
75936;BME280;64614;32.062;34.834;2023-07-13T12:51:14;100429.13;;;29.80;59.85
75936;BME280;64614;32.062;34.834;2023-07-13T12:53:49;100427.53;;;29.79;59.97
75936;BME280;64614;32.062;34.834;2023-07-13T12:56:25;100422.72;;;29.76;59.96
75936;BME280;64614;32.062;34.834;2023-07-13T12:59:00;100423.03;;;29.70;59.70
75936;BME280;64614;32.062;34.834;2023-07-13T13:01:28;100421.88;;;29.72;59.59
75936;BME280;64614;32.062;34.834;2023-07-13T13:03:55;100422.25;;;29.70;60.08
75936;BME280;64614;32.062;34.834;2023-07-13T13:06:27;100407.59;;;29.69;59.54
75936;BME280;64614;32.062;34.834;2023-07-13T13:08:56;100394.84;;;29.65;59.50
75936;BME280;64614;32.062;34.834;2023-07-13T13:11:28;100398.06;;;29.67;59.35
75936;BME280;64614;32.062;34.834;2023-07-13T13:13:54;100405.47;;;29.63;59.45
75936;BME280;64614;32.062;34.834;2023-07-13T13:16:30;100405.00;;;29.57;58.94
75936;BME280;64614;32.062;34.834;2023-07-13T13:19:18;100406.44;;;29.51;58.91
75936;BME280;64614;32.062;34.834;2023-07-13T13:21:45;100405.59;;;29.47;58.66
75936;BME280;64614;32.062;34.834;2023-07-13T13:24:19;100401.59;;;29.44;58.79
75936;BME280;64614;32.062;34.834;2023-07-13T13:26:46;100392.03;;;29.42;58.54
75936;BME280;64614;32.062;34.834;2023-07-13T13:29:15;100395.13;;;29.36;57.04
75936;BME280;64614;32.062;34.834;2023-07-13T13:31:41;100398.97;;;29.32;55.72
75936;BME280;64614;32.062;34.834;2023-07-13T13:34:12;100388.59;;;29.29;54.58
75936;BME280;64614;32.062;34.834;2023-07-13T13:36:39;100393.72;;;29.27;54.43
75936;BME280;64614;32.062;34.834;2023-07-13T13:41:44;100381.13;;;29.29;53.76
75936;BME280;64614;32.062;34.834;2023-07-13T13:44:10;100378.28;;;29.26;51.97
75936;BME280;64614;32.062;34.834;2023-07-13T13:46:36;100389.41;;;29.29;52.63
75936;BME280;64614;32.062;34.834;2023-07-13T13:49:02;100385.50;;;29.30;52.29
75936;BME280;64614;32.062;34.834;2023-07-13T13:51:28;100380.06;;;29.34;50.82
75936;BME280;64614;32.062;34.834;2023-07-13T13:53:54;100389.59;;;29.36;50.64
75936;BME280;64614;32.062;34.834;2023-07-13T13:56:20;100392.41;;;29.40;51.75
75936;BME280;64614;32.062;34.834;2023-07-13T13:58:47;100389.72;;;29.44;51.24
75936;BME280;64614;32.062;34.834;2023-07-13T14:01:19;100390.94;;;29.46;51.61
75936;BME280;64614;32.062;34.834;2023-07-13T14:03:46;100380.38;;;29.52;51.55
75936;BME280;64614;32.062;34.834;2023-07-13T14:06:15;100383.97;;;29.52;50.87
75936;BME280;64614;32.062;34.834;2023-07-13T14:08:42;100379.22;;;29.53;50.74
75936;BME280;64614;32.062;34.834;2023-07-13T14:11:15;100382.50;;;29.59;50.99
75936;BME280;64614;32.062;34.834;2023-07-13T14:13:46;100386.03;;;29.59;50.56
75936;BME280;64614;32.062;34.834;2023-07-13T14:16:16;100365.56;;;29.64;51.02
75936;BME280;64614;32.062;34.834;2023-07-13T14:18:46;100379.13;;;29.69;51.46
75936;BME280;64614;32.062;34.834;2023-07-13T14:21:17;100378.38;;;29.72;51.33
75936;BME280;64614;32.062;34.834;2023-07-13T14:23:45;100376.84;;;29.75;51.01
75936;BME280;64614;32.062;34.834;2023-07-13T14:26:16;100365.34;;;29.73;51.19
75936;BME280;64614;32.062;34.834;2023-07-13T14:28:45;100368.91;;;29.73;50.25
75936;BME280;64614;32.062;34.834;2023-07-13T14:31:15;100367.31;;;29.72;49.56
75936;BME280;64614;32.062;34.834;2023-07-13T14:33:41;100358.59;;;29.70;48.54
75936;BME280;64614;32.062;34.834;2023-07-13T14:36:31;100360.53;;;29.69;49.61
75936;BME280;64614;32.062;34.834;2023-07-13T14:38:58;100357.09;;;29.76;49.41
75936;BME280;64614;32.062;34.834;2023-07-13T14:41:25;100360.25;;;29.75;48.81
75936;BME280;64614;32.062;34.834;2023-07-13T14:43:51;100340.44;;;29.73;47.77
75936;BME280;64614;32.062;34.834;2023-07-13T14:46:34;100357.06;;;29.73;47.54
75936;BME280;64614;32.062;34.834;2023-07-13T14:52:00;100332.56;;;29.75;47.29